createdAt,value
2023-05-03T00:02:19.707Z,5.60
2023-05-03T00:04:48.619Z,6.50
2023-05-03T00:07:16.884Z,5.60
2023-05-03T00:09:44.683Z,6.23
2023-05-03T00:12:12.433Z,6.77
2023-05-03T00:14:40.200Z,6.03
2023-05-03T00:17:08.049Z,5.73
2023-05-03T00:19:37.598Z,6.03
2023-05-03T00:22:05.403Z,6.07
2023-05-03T00:24:33.157Z,5.80
2023-05-03T00:27:00.891Z,5.90
2023-05-03T00:29:28.672Z,6.43
2023-05-03T00:31:56.440Z,6.20
2023-05-03T00:34:24.282Z,6.47
2023-05-03T00:36:53.431Z,6.33
2023-05-03T00:39:21.270Z,5.80
2023-05-03T00:41:49.010Z,6.33
2023-05-03T00:44:16.843Z,6.90
2023-05-03T00:46:44.606Z,6.13
2023-05-03T00:49:12.645Z,6.07
2023-05-03T00:51:41.967Z,5.80
2023-05-03T00:54:12.126Z,5.30
2023-05-03T00:56:48.370Z,5.83
2023-05-03T00:59:19.433Z,5.50
2023-05-03T01:01:49.543Z,6.13
2023-05-03T01:04:17.591Z,5.83
2023-05-03T01:06:49.601Z,5.93
2023-05-03T01:09:23.265Z,6.07
2023-05-03T01:12:07.549Z,5.63
2023-05-03T01:14:40.427Z,6.17
2023-05-03T01:17:11.053Z,6.30
2023-05-03T01:19:46.020Z,5.67
2023-05-03T01:22:19.246Z,6.33
2023-05-03T01:24:52.830Z,6.37
2023-05-03T01:27:21.953Z,6.50
2023-05-03T01:29:49.709Z,6.80
2023-05-03T01:32:22.909Z,6.03
2023-05-03T01:34:54.565Z,5.70
2023-05-03T01:37:22.865Z,6.47
2023-05-03T01:39:53.286Z,5.63
2023-05-03T01:42:22.988Z,6.47
2023-05-03T01:44:51.077Z,6.10
2023-05-03T01:47:18.839Z,6.57
2023-05-03T01:49:46.595Z,5.70
2023-05-03T01:52:15.017Z,6.17
2023-05-03T01:54:42.794Z,6.03
2023-05-03T01:57:10.747Z,5.70
2023-05-03T01:59:39.923Z,6.07
2023-05-03T02:02:07.763Z,6.80
2023-05-03T02:04:35.568Z,6.07
2023-05-03T02:07:03.412Z,5.87
2023-05-03T02:09:31.176Z,5.73
2023-05-03T02:11:58.920Z,5.40
2023-05-03T02:14:26.686Z,5.90
2023-05-03T02:16:56.158Z,6.17
2023-05-03T02:19:24.122Z,5.47
2023-05-03T02:21:51.865Z,6.17
2023-05-03T02:24:19.933Z,5.20
2023-05-03T02:26:47.705Z,5.40
2023-05-03T02:29:15.706Z,5.90
2023-05-03T02:31:43.464Z,5.77
2023-05-03T02:34:12.618Z,5.20
2023-05-03T02:36:40.386Z,5.90
2023-05-03T02:39:08.160Z,5.63
2023-05-03T02:41:36.064Z,5.67
2023-05-03T02:44:03.849Z,5.70
2023-05-03T02:46:31.918Z,5.37
2023-05-03T02:48:59.707Z,5.73
2023-05-03T02:51:30.002Z,5.90
2023-05-03T02:53:57.782Z,5.17
2023-05-03T02:56:26.607Z,6.10
2023-05-03T02:58:54.412Z,5.30
2023-05-03T03:01:22.409Z,5.57
2023-05-03T03:03:50.331Z,5.23
2023-05-03T03:06:18.256Z,5.40
2023-05-03T03:08:47.425Z,5.63
2023-05-03T03:11:15.610Z,6.57
2023-05-03T03:13:43.385Z,5.97
2023-05-03T03:16:11.290Z,6.50
2023-05-03T03:18:39.437Z,5.53
2023-05-03T03:21:07.305Z,5.80
2023-05-03T03:23:35.043Z,6.40
2023-05-03T03:26:04.435Z,6.00
2023-05-03T03:28:32.229Z,5.97
2023-05-03T03:31:00.143Z,6.13
2023-05-03T03:33:27.904Z,5.77
2023-05-03T03:35:55.653Z,5.57
2023-05-03T03:38:23.429Z,5.83
2023-05-03T03:40:52.206Z,5.63
2023-05-03T03:43:21.496Z,5.50
2023-05-03T03:45:49.438Z,6.00
2023-05-03T03:48:17.231Z,5.70
2023-05-03T03:50:45.256Z,5.87
2023-05-03T03:53:12.968Z,5.90
2023-05-03T03:55:40.731Z,5.37
2023-05-03T03:58:08.806Z,5.87
2023-05-03T04:00:38.064Z,5.17
2023-05-03T04:03:07.839Z,5.77
2023-05-03T04:05:36.089Z,5.30
2023-05-03T04:08:03.888Z,5.10
2023-05-03T04:10:31.662Z,5.90
2023-05-03T04:12:59.660Z,5.60
2023-05-03T04:15:27.529Z,5.73
2023-05-03T04:17:56.669Z,5.37
2023-05-03T04:20:24.709Z,6.27
2023-05-03T04:22:52.490Z,6.10
2023-05-03T04:25:20.312Z,6.60
2023-05-03T04:27:48.848Z,5.60
2023-05-03T04:30:17.633Z,6.00
2023-05-03T04:32:45.437Z,6.90
2023-05-03T04:35:14.700Z,5.67
2023-05-03T04:37:43.436Z,6.10
2023-05-03T04:40:12.487Z,6.17
2023-05-03T04:42:41.173Z,6.50
2023-05-03T04:45:10.897Z,5.73
2023-05-03T04:47:40.996Z,5.90
2023-05-03T04:50:11.317Z,5.77
2023-05-03T04:52:40.737Z,6.40
2023-05-03T04:55:37.385Z,5.47
2023-05-03T04:58:19.729Z,5.73
2023-05-03T05:00:54.678Z,5.33
2023-05-03T05:03:34.760Z,5.07
2023-05-03T05:06:12.151Z,8.90
2023-05-03T05:08:42.139Z,5.53
2023-05-03T05:11:15.562Z,5.87
2023-05-03T05:13:43.341Z,6.10
2023-05-03T05:16:11.115Z,6.00
2023-05-03T05:18:38.861Z,5.43
2023-05-03T05:21:06.736Z,6.07
2023-05-03T05:23:34.503Z,5.57
2023-05-03T05:26:04.684Z,5.70
2023-05-03T05:28:32.868Z,5.50
2023-05-03T05:31:01.018Z,5.07
2023-05-03T05:33:28.979Z,5.43
2023-05-03T05:35:56.827Z,5.27
2023-05-03T05:38:24.632Z,5.30
2023-05-03T05:40:52.425Z,5.37
2023-05-03T05:43:21.599Z,4.90
2023-05-03T05:45:49.599Z,6.03
2023-05-03T05:48:17.474Z,5.60
2023-05-03T05:50:46.147Z,5.40
2023-05-03T05:53:13.898Z,5.13
2023-05-03T05:55:41.696Z,5.17
2023-05-03T05:58:09.741Z,5.00
2023-05-03T06:00:39.040Z,5.43
2023-05-03T06:03:07.124Z,5.57
2023-05-03T06:05:34.973Z,5.40
2023-05-03T06:08:02.772Z,4.60
2023-05-03T06:10:30.569Z,5.00
2023-05-03T06:12:58.356Z,5.13
2023-05-03T06:15:26.315Z,5.17
2023-05-03T06:17:55.730Z,5.30
2023-05-03T06:20:24.309Z,5.20
2023-05-03T06:22:52.474Z,4.67
2023-05-03T06:25:20.307Z,5.17
2023-05-03T06:27:48.482Z,4.90
2023-05-03T06:30:16.854Z,5.37
2023-05-03T06:32:44.666Z,4.83
2023-05-03T06:35:14.125Z,4.97
2023-05-03T06:37:43.736Z,5.03
2023-05-03T06:40:11.988Z,5.27
2023-05-03T06:42:39.788Z,5.13
2023-05-03T06:45:08.683Z,4.43
2023-05-03T06:47:37.182Z,4.90
2023-05-03T06:50:05.801Z,5.30
2023-05-03T06:52:35.202Z,4.93
2023-05-03T06:55:03.096Z,4.80
2023-05-03T06:57:30.934Z,4.53
2023-05-03T06:59:58.989Z,4.60
2023-05-03T07:02:27.361Z,4.60
2023-05-03T07:04:55.207Z,4.90
2023-05-03T07:07:23.247Z,4.80
2023-05-03T07:09:52.492Z,5.23
2023-05-03T07:12:20.322Z,4.93
2023-05-03T07:14:48.462Z,5.90
2023-05-03T07:17:16.244Z,5.00
2023-05-03T07:19:43.968Z,5.00
2023-05-03T07:22:11.913Z,4.43
2023-05-03T07:24:39.768Z,4.30
2023-05-03T07:27:09.137Z,5.00
2023-05-03T07:29:36.945Z,4.97
2023-05-03T07:32:05.599Z,4.53
2023-05-03T07:34:33.738Z,4.90
2023-05-03T07:37:01.595Z,5.00
2023-05-03T07:39:29.412Z,4.40
2023-05-03T07:41:57.164Z,4.70
2023-05-03T07:44:26.363Z,4.23
2023-05-03T07:46:54.153Z,4.77
2023-05-03T07:49:22.052Z,4.07
2023-05-03T07:51:50.093Z,5.37
2023-05-03T07:54:17.882Z,5.30
2023-05-03T07:56:45.687Z,7.23
2023-05-03T07:59:13.482Z,5.27
2023-05-03T08:01:42.615Z,4.47
2023-05-03T08:04:10.694Z,4.87
2023-05-03T08:06:39.128Z,4.73
2023-05-03T08:09:06.949Z,4.67
2023-05-03T08:11:34.921Z,4.53
2023-05-03T08:14:02.950Z,4.67
2023-05-03T08:16:31.041Z,4.50
2023-05-03T08:19:00.392Z,4.70
2023-05-03T08:21:28.659Z,4.50
2023-05-03T08:23:56.466Z,4.47
2023-05-03T08:26:28.596Z,4.47
2023-05-03T08:28:56.734Z,4.40
2023-05-03T08:31:24.669Z,4.63
2023-05-03T08:33:52.672Z,4.30
2023-05-03T08:36:21.844Z,5.20
2023-05-03T08:38:50.561Z,4.63
2023-05-03T08:41:26.774Z,4.50
2023-05-03T08:43:55.516Z,4.40
2023-05-03T08:46:23.702Z,4.50
2023-05-03T08:48:53.568Z,4.03
2023-05-03T08:51:24.036Z,4.37
2023-05-03T08:53:52.261Z,4.70
2023-05-03T08:56:25.919Z,4.50
2023-05-03T08:58:53.770Z,4.20
2023-05-03T09:01:21.719Z,4.20
2023-05-03T09:03:51.624Z,4.80
2023-05-03T09:06:25.976Z,3.87
2023-05-03T09:08:54.566Z,4.03
2023-05-03T09:11:23.596Z,3.80
2023-05-03T09:13:52.940Z,3.90
2023-05-03T09:16:27.174Z,4.27
2023-05-03T09:18:59.022Z,3.90
2023-05-03T09:21:28.378Z,3.70
2023-05-03T09:23:56.185Z,4.00
2023-05-03T09:26:31.033Z,4.07
2023-05-03T09:28:59.992Z,4.00
2023-05-03T09:31:29.290Z,3.77
2023-05-03T09:33:57.388Z,4.10
2023-05-03T09:36:25.788Z,4.17
2023-05-03T09:38:56.138Z,3.70
2023-05-03T09:41:30.794Z,5.10
2023-05-03T09:44:03.146Z,3.40
2023-05-03T09:46:32.180Z,4.17
2023-05-03T09:49:00.089Z,3.90
2023-05-03T09:51:28.168Z,4.20
2023-05-03T09:53:58.887Z,4.10
2023-05-03T09:56:27.492Z,3.80
2023-05-03T09:58:55.844Z,3.97
2023-05-03T10:01:25.509Z,3.90
2023-05-03T10:03:54.502Z,3.90
2023-05-03T10:06:26.742Z,3.80
2023-05-03T10:08:59.228Z,4.20
2023-05-03T10:11:28.442Z,3.70
2023-05-03T10:13:56.534Z,3.63
2023-05-03T10:16:27.755Z,4.27
2023-05-03T10:18:59.934Z,4.40
2023-05-03T10:21:36.951Z,3.70
2023-05-03T10:24:14.143Z,3.83
2023-05-03T10:26:42.694Z,3.70
2023-05-03T10:29:52.420Z,3.80
2023-05-03T10:32:30.965Z,3.80
2023-05-03T10:35:03.690Z,3.80
2023-05-03T10:37:33.694Z,3.73
2023-05-03T10:40:13.943Z,3.60
2023-05-03T10:42:45.615Z,3.60
2023-05-03T10:45:23.267Z,3.67
2023-05-03T10:48:16.635Z,4.17
2023-05-03T10:50:44.760Z,4.23
2023-05-03T10:53:36.447Z,3.80
2023-05-03T10:56:08.288Z,4.27
2023-05-03T10:58:37.692Z,3.80
2023-05-03T11:01:06.498Z,4.57
2023-05-03T11:03:45.615Z,4.13
2023-05-03T11:06:28.676Z,4.40
2023-05-03T11:08:56.649Z,3.90
2023-05-03T11:11:25.799Z,4.17
2023-05-03T11:13:58.159Z,3.70
2023-05-03T11:16:26.616Z,3.60
2023-05-03T11:18:55.456Z,3.73
2023-05-03T11:21:24.163Z,4.03
2023-05-03T11:23:52.124Z,4.40
2023-05-03T11:26:26.030Z,4.33
2023-05-03T11:28:56.052Z,4.30
2023-05-03T11:31:23.963Z,4.33
2023-05-03T11:33:52.167Z,3.93
2023-05-03T11:36:20.029Z,3.47
2023-05-03T11:38:47.865Z,3.40
2023-05-03T11:41:27.313Z,3.53
2023-05-03T11:44:07.661Z,3.63
2023-05-03T11:46:46.087Z,3.87
2023-05-03T11:49:19.315Z,3.43
2023-05-03T11:51:50.748Z,3.97
2023-05-03T11:54:26.001Z,3.50
2023-05-03T11:56:58.035Z,4.33
2023-05-03T11:59:38.141Z,3.87
2023-05-03T12:02:06.270Z,3.80
2023-05-03T12:04:34.567Z,4.00
2023-05-03T12:07:03.423Z,3.70
2023-05-03T12:09:32.549Z,4.00
2023-05-03T12:12:02.304Z,3.57
2023-05-03T12:14:30.482Z,3.70
2023-05-03T12:17:00.416Z,3.63
2023-05-03T12:19:32.280Z,4.27
2023-05-03T12:22:18.184Z,3.73
2023-05-03T12:24:53.402Z,3.80
2023-05-03T12:27:23.597Z,3.57
2023-05-03T12:29:51.989Z,3.97
2023-05-03T12:32:22.974Z,4.17
2023-05-03T12:34:52.197Z,3.47
2023-05-03T12:37:22.225Z,4.33
2023-05-03T12:40:00.538Z,3.70
2023-05-03T12:42:42.854Z,3.80
2023-05-03T12:45:12.945Z,3.23
2023-05-03T12:47:44.478Z,3.63
2023-05-03T12:50:13.227Z,4.07
2023-05-03T12:52:45.468Z,3.90
2023-05-03T12:55:18.185Z,3.70
2023-05-03T12:57:59.340Z,3.80
2023-05-03T13:00:36.354Z,3.50
2023-05-03T13:05:37.482Z,4.07
2023-05-03T13:08:10.018Z,4.00
2023-05-03T13:10:39.158Z,3.90
2023-05-03T13:13:07.194Z,3.87
2023-05-03T13:15:36.210Z,3.23
2023-05-03T13:18:05.007Z,4.00
2023-05-03T13:20:34.708Z,4.13
2023-05-03T13:23:02.509Z,4.00
2023-05-03T13:25:30.361Z,3.70
2023-05-03T13:27:58.137Z,4.00
2023-05-03T13:30:26.788Z,3.87
2023-05-03T13:32:54.587Z,3.53
2023-05-03T13:35:22.392Z,3.50
2023-05-03T13:37:51.546Z,3.97
2023-05-03T13:40:19.473Z,3.90
2023-05-03T13:42:47.896Z,3.80
2023-05-03T13:45:15.841Z,3.20
2023-05-03T13:48:05.333Z,3.20
2023-05-03T13:50:31.523Z,2.97
2023-05-03T13:53:00.653Z,3.00
2023-05-03T13:55:28.576Z,3.17
2023-05-03T13:57:56.349Z,2.70
2023-05-03T14:00:24.351Z,3.27
2023-05-03T14:02:52.618Z,2.90
2023-05-03T14:05:20.895Z,3.00
2023-05-03T14:07:48.677Z,2.92
2023-05-03T14:10:17.987Z,2.70
2023-05-03T14:12:45.809Z,3.08
2023-05-03T14:15:15.074Z,2.75
2023-05-03T14:17:43.713Z,2.80
2023-05-03T14:20:12.446Z,2.72
2023-05-03T14:22:40.494Z,2.50
2023-05-03T14:25:09.559Z,2.35
2023-05-03T14:27:38.703Z,2.70
2023-05-03T14:30:09.525Z,2.58
2023-05-03T14:32:37.366Z,2.40
2023-05-03T14:35:05.552Z,2.40
2023-05-03T14:37:33.365Z,2.20
2023-05-03T14:40:01.547Z,2.10
2023-05-03T14:42:31.630Z,2.03
2023-05-03T14:45:01.620Z,2.37
2023-05-03T14:47:29.526Z,1.90
2023-05-03T14:49:57.292Z,2.43
2023-05-03T14:52:25.098Z,2.40
2023-05-03T14:54:53.732Z,2.40
2023-05-03T14:57:21.762Z,2.47
2023-05-03T14:59:49.617Z,2.00
2023-05-03T15:02:19.252Z,2.57
2023-05-03T15:04:47.054Z,2.40
2023-05-03T15:07:15.507Z,2.30
2023-05-03T15:09:44.866Z,2.23
2023-05-03T15:12:12.765Z,2.50
2023-05-03T15:14:40.871Z,2.80
2023-05-03T15:17:08.723Z,2.77
2023-05-03T15:19:37.999Z,3.17
2023-05-03T15:22:05.775Z,5.18
2023-05-03T15:24:33.525Z,2.47
2023-05-03T15:27:04.639Z,2.63
2023-05-03T15:29:32.461Z,3.60
2023-05-03T15:32:01.703Z,2.92
2023-05-03T15:34:29.680Z,2.80
2023-05-03T15:36:58.814Z,2.30
2023-05-03T15:39:26.561Z,3.22
2023-05-03T15:41:54.327Z,2.30
2023-05-03T15:44:22.091Z,2.10
2023-05-03T15:46:49.992Z,2.60
2023-05-03T15:49:17.804Z,2.60
2023-05-03T15:51:45.540Z,2.33
2023-05-03T15:54:14.720Z,2.50
2023-05-03T15:56:42.549Z,2.78
2023-05-03T15:59:14.868Z,3.03
2023-05-03T16:01:42.777Z,2.35
2023-05-03T16:04:10.610Z,2.83
2023-05-03T16:06:38.413Z,2.90
2023-05-03T16:09:06.985Z,2.50
2023-05-03T16:11:36.659Z,2.65
2023-05-03T16:14:09.158Z,2.22
2023-05-03T16:16:39.000Z,2.10
2023-05-03T16:19:08.774Z,2.15
2023-05-03T16:21:36.569Z,2.40
2023-05-03T16:24:04.837Z,2.30
2023-05-03T16:26:34.504Z,2.50
2023-05-03T16:29:03.963Z,2.20
2023-05-03T16:31:31.958Z,2.30
2023-05-03T16:33:59.769Z,2.35
2023-05-03T16:36:27.988Z,2.63
2023-05-03T16:38:55.744Z,2.40
2023-05-03T16:41:24.301Z,2.57
2023-05-03T16:43:52.507Z,2.20
2023-05-03T16:46:22.840Z,2.60
2023-05-03T16:48:51.916Z,3.00
2023-05-03T16:51:21.829Z,2.67
2023-05-03T16:53:49.546Z,2.67
2023-05-03T16:56:17.498Z,2.50
2023-05-03T16:58:45.296Z,2.63
2023-05-03T17:01:13.283Z,2.60
2023-05-03T17:03:42.751Z,2.60
2023-05-03T17:06:10.795Z,2.73
2023-05-03T17:08:38.675Z,2.07
2023-05-03T17:11:13.008Z,2.80
2023-05-03T17:13:42.257Z,2.77
2023-05-03T17:16:11.764Z,2.60
2023-05-03T17:18:40.649Z,2.33
2023-05-03T17:21:10.116Z,2.20
2023-05-03T17:23:39.521Z,2.07
2023-05-03T17:26:09.756Z,2.33
2023-05-03T17:28:37.942Z,2.57
2023-05-03T17:31:06.603Z,2.67
2023-05-03T17:33:34.867Z,2.70
2023-05-03T17:36:04.943Z,2.27
2023-05-03T17:38:34.757Z,2.00
2023-05-03T17:41:07.441Z,1.98
2023-05-03T17:43:35.735Z,1.98
2023-05-03T17:46:08.675Z,2.03
2023-05-03T17:48:37.917Z,2.10
2023-05-03T17:51:06.144Z,2.30
2023-05-03T17:53:35.354Z,2.25
2023-05-03T17:56:03.211Z,2.30
2023-05-03T17:58:30.987Z,2.10
2023-05-03T18:00:58.788Z,2.45
2023-05-03T18:03:26.672Z,2.00
2023-05-03T18:05:54.493Z,2.17
2023-05-03T18:08:22.280Z,2.20
2023-05-03T18:10:51.961Z,2.28
2023-05-03T18:13:19.839Z,2.00
2023-05-03T18:15:47.857Z,2.23
2023-05-03T18:18:22.450Z,2.27
2023-05-03T18:20:58.442Z,2.30
2023-05-03T18:23:26.197Z,2.23
2023-05-03T18:25:55.376Z,2.20
2023-05-03T18:28:23.959Z,2.17
2023-05-03T18:30:52.816Z,2.23
2023-05-03T18:33:21.033Z,1.97
2023-05-03T18:35:49.377Z,2.27
2023-05-03T18:41:17.497Z,2.10
2023-05-03T18:43:46.004Z,1.80
2023-05-03T18:46:18.281Z,2.07
2023-05-03T18:48:46.161Z,2.10
2023-05-03T18:51:14.326Z,1.77
2023-05-03T18:53:43.461Z,1.93
2023-05-03T18:56:12.616Z,2.53
2023-05-03T18:58:40.366Z,1.70
2023-05-03T19:01:17.604Z,1.90
2023-05-03T19:04:01.229Z,1.93
2023-05-03T19:06:29.083Z,2.00
2023-05-03T19:08:56.880Z,2.00
2023-05-03T19:11:27.065Z,2.03
2023-05-03T19:13:54.880Z,1.73
2023-05-03T19:16:22.845Z,1.77
2023-05-03T19:18:50.600Z,1.77
2023-05-03T19:21:19.631Z,1.63
2023-05-03T19:23:47.382Z,2.10
2023-05-03T19:26:15.139Z,2.13
2023-05-03T19:28:44.674Z,1.83
2023-05-03T19:31:12.504Z,2.20
2023-05-03T19:33:40.312Z,2.20
2023-05-03T19:36:08.609Z,2.40
2023-05-03T19:38:36.843Z,2.00
2023-05-03T19:41:08.319Z,2.17
2023-05-03T19:43:36.328Z,2.43
2023-05-03T19:46:05.740Z,1.80
2023-05-03T19:48:33.582Z,1.80
2023-05-03T19:51:02.575Z,1.60
2023-05-03T19:53:40.225Z,1.80
2023-05-03T19:56:09.619Z,1.80
2023-05-03T19:58:46.593Z,1.50
2023-05-03T20:01:16.562Z,1.60
2023-05-03T20:06:12.243Z,1.57
2023-05-03T20:08:40.151Z,1.60
2023-05-03T20:11:08.026Z,1.90
2023-05-03T20:13:36.028Z,1.97
2023-05-03T20:16:05.920Z,1.87
2023-05-03T20:18:35.106Z,1.77
2023-05-03T20:21:03.339Z,2.03
2023-05-03T20:23:34.194Z,2.00
2023-05-03T20:26:02.295Z,1.90
2023-05-03T20:28:32.391Z,1.90
2023-05-03T20:31:00.133Z,1.83
2023-05-03T20:33:27.852Z,1.73
2023-05-03T20:35:56.955Z,1.70
2023-05-03T20:38:26.331Z,1.90
2023-05-03T20:40:56.626Z,1.70
2023-05-03T20:43:24.384Z,1.70
2023-05-03T20:45:53.466Z,2.00
2023-05-03T20:48:21.531Z,1.90
2023-05-03T20:50:50.013Z,1.87
2023-05-03T20:53:19.174Z,2.10
2023-05-03T20:55:46.945Z,1.90
2023-05-03T20:58:17.510Z,1.80
2023-05-03T21:00:45.546Z,1.80
2023-05-03T21:03:13.335Z,2.07
2023-05-03T21:05:41.333Z,1.90
2023-05-03T21:08:09.164Z,2.00
2023-05-03T21:10:40.511Z,1.90
2023-05-03T21:13:08.569Z,2.00
2023-05-03T21:15:37.351Z,2.23
2023-05-03T21:18:07.358Z,2.00
2023-05-03T21:20:35.540Z,1.80
2023-05-03T21:23:03.313Z,2.10
2023-05-03T21:25:31.102Z,1.87
2023-05-03T21:28:00.306Z,1.80
2023-05-03T21:30:29.029Z,1.90
2023-05-03T21:32:57.170Z,2.30
2023-05-03T21:35:25.618Z,2.00
2023-05-03T21:37:58.167Z,2.53
2023-05-03T21:40:26.024Z,2.10
2023-05-03T21:42:54.130Z,2.00
2023-05-03T21:45:26.316Z,2.20
2023-05-03T21:47:54.374Z,1.90
2023-05-03T21:50:26.502Z,1.70
2023-05-03T21:52:54.594Z,1.90
2023-05-03T21:55:22.673Z,1.60
2023-05-03T21:57:51.460Z,2.20
2023-05-03T22:00:20.961Z,2.20
2023-05-03T22:02:50.932Z,1.90
2023-05-03T22:05:19.098Z,1.90
2023-05-03T22:07:48.702Z,2.10
2023-05-03T22:10:16.896Z,1.90
2023-05-03T22:12:45.386Z,2.40
2023-05-03T22:15:13.724Z,2.20
2023-05-03T22:17:41.682Z,2.30
2023-05-03T22:20:12.264Z,1.90
2023-05-03T22:22:40.501Z,1.90
2023-05-03T22:25:09.085Z,2.20
2023-05-03T22:27:37.543Z,2.50
2023-05-03T22:30:06.711Z,2.03
2023-05-03T22:32:35.118Z,2.10
2023-05-03T22:35:03.777Z,2.33
2023-05-03T22:37:32.978Z,2.30
2023-05-03T22:40:00.962Z,2.00
2023-05-03T22:42:28.914Z,2.00
2023-05-03T22:44:57.531Z,1.97
2023-05-03T22:47:25.779Z,2.07
2023-05-03T22:49:53.947Z,1.90
2023-05-03T22:52:21.739Z,2.00
2023-05-03T22:54:56.173Z,1.70
2023-05-03T22:57:24.327Z,1.80
2023-05-03T22:59:52.045Z,1.93
2023-05-03T23:02:20.163Z,1.80
2023-05-03T23:04:47.991Z,2.40
2023-05-03T23:07:16.467Z,1.90
2023-05-03T23:09:44.589Z,2.03
2023-05-03T23:12:14.364Z,1.93
2023-05-03T23:14:45.690Z,1.90
2023-05-03T23:17:14.065Z,1.60
2023-05-03T23:19:41.803Z,1.90
2023-05-03T23:22:09.651Z,1.97
2023-05-03T23:24:37.680Z,1.87
2023-05-03T23:27:05.547Z,1.80
2023-05-03T23:29:35.146Z,1.93
2023-05-03T23:32:03.608Z,1.80
2023-05-03T23:34:31.937Z,2.10
2023-05-03T23:36:59.986Z,1.90
2023-05-03T23:39:28.022Z,1.83
2023-05-03T23:41:55.760Z,2.03
2023-05-03T23:44:23.982Z,1.87
2023-05-03T23:46:53.343Z,1.93
2023-05-03T23:49:21.209Z,1.80
2023-05-03T23:51:49.219Z,1.73
2023-05-03T23:54:17.345Z,2.10
2023-05-03T23:56:45.108Z,2.07
2023-05-03T23:59:13.154Z,2.07
